createdAt,value
2023-05-19T00:02:12.309Z,102523.31
2023-05-19T00:04:58.283Z,102520.66
2023-05-19T00:07:45.329Z,102526.72
2023-05-19T00:10:33.275Z,102528.47
2023-05-19T00:13:19.714Z,102531.94
2023-05-19T00:16:06.321Z,102520.53
2023-05-19T00:18:51.815Z,102519.63
2023-05-19T00:21:40.472Z,102519.63
2023-05-19T00:24:25.928Z,102520.47
2023-05-19T00:27:11.338Z,102524.81
2023-05-19T00:29:57.525Z,102529.16
2023-05-19T00:32:42.861Z,102522.13
2023-05-19T00:35:28.117Z,102516.03
2023-05-19T00:38:13.285Z,102511.63
2023-05-19T00:41:00.248Z,102505.50
2023-05-19T00:43:46.838Z,102509.84
2023-05-19T00:46:32.341Z,102506.34
2023-05-19T00:49:17.609Z,102509.84
2023-05-19T00:52:06.037Z,102504.56
2023-05-19T00:54:53.264Z,102493.19
2023-05-19T00:57:38.888Z,102489.66
2023-05-19T01:00:24.788Z,102496.66
2023-05-19T01:03:11.430Z,102484.34
2023-05-19T01:06:01.715Z,102488.75
2023-05-19T01:08:47.428Z,102493.09
2023-05-19T01:11:32.729Z,102489.56
2023-05-19T01:14:20.493Z,102486.09
2023-05-19T01:17:15.227Z,102486.09
2023-05-19T01:20:11.053Z,102496.56
2023-05-19T01:23:36.704Z,102494.78
2023-05-19T01:26:54.731Z,102502.63
2023-05-19T01:30:25.394Z,102502.63
2023-05-19T01:33:15.217Z,102500.84
2023-05-19T01:36:04.012Z,102496.44
2023-05-19T01:38:56.024Z,102505.19
2023-05-19T01:41:42.442Z,102501.69
2023-05-19T01:44:28.804Z,102511.28
2023-05-19T01:47:15.114Z,102506.88
2023-05-19T01:50:01.115Z,102504.25
2023-05-19T01:52:46.389Z,102498.97
2023-05-19T01:55:31.856Z,102503.31
2023-05-19T01:58:39.683Z,102504.13
2023-05-19T02:01:48.191Z,102495.34
2023-05-19T02:04:48.101Z,102500.59
2023-05-19T02:08:01.615Z,102489.19
2023-05-19T02:11:07.652Z,102490.91
2023-05-19T02:14:01.158Z,102488.25
2023-05-19T02:16:49.145Z,102482.97
2023-05-19T02:19:39.113Z,102481.16
2023-05-19T02:22:24.618Z,102474.16
2023-05-19T02:25:11.517Z,102471.53
2023-05-19T02:27:58.594Z,102475.88
2023-05-19T02:30:43.893Z,102477.63
2023-05-19T02:33:30.400Z,102472.34
2023-05-19T02:36:15.979Z,102473.25
2023-05-19T02:39:04.718Z,102471.47
2023-05-19T02:41:50.400Z,102468.81
2023-05-19T02:44:36.411Z,102468.84
2023-05-19T02:47:22.164Z,102467.09
2023-05-19T02:50:08.752Z,102469.69
2023-05-19T02:52:54.304Z,102465.28
2023-05-19T02:55:39.621Z,102462.72
2023-05-19T02:58:24.836Z,102476.63
2023-05-19T03:01:11.101Z,102474.00
2023-05-19T03:03:56.340Z,102473.09
2023-05-19T03:06:42.425Z,102463.44
2023-05-19T03:09:27.790Z,102466.91
2023-05-19T03:12:12.980Z,102464.25
2023-05-19T03:14:58.364Z,102469.47
2023-05-19T03:17:43.876Z,102463.28
2023-05-19T03:20:30.581Z,102467.63
2023-05-19T03:23:16.428Z,102464.13
2023-05-19T03:26:01.659Z,102468.47
2023-05-19T03:28:46.975Z,102471.06
2023-05-19T03:31:32.489Z,102466.66
2023-05-19T03:34:18.103Z,102472.81
2023-05-19T03:37:03.395Z,102472.81
2023-05-19T03:39:49.144Z,102466.72
2023-05-19T03:42:34.350Z,102472.88
2023-05-19T03:45:20.174Z,102473.72
2023-05-19T03:48:09.187Z,102476.41
2023-05-19T03:51:17.580Z,102487.78
2023-05-19T03:54:04.562Z,102488.69
2023-05-19T03:56:50.269Z,102490.50
2023-05-19T03:59:37.215Z,102491.41
2023-05-19T04:02:23.000Z,102489.75
2023-05-19T04:05:08.564Z,102487.31
2023-05-19T04:07:55.533Z,102482.97
2023-05-19T04:10:41.867Z,102486.50
2023-05-19T04:13:27.295Z,102489.16
2023-05-19T04:16:15.352Z,102486.56
2023-05-19T04:19:01.288Z,102490.97
2023-05-19T04:21:46.988Z,102488.38
2023-05-19T04:24:33.617Z,102491.91
2023-05-19T04:27:19.506Z,102491.09
2023-05-19T04:30:06.552Z,102492.84
2023-05-19T04:32:52.103Z,102489.41
2023-05-19T04:35:38.226Z,102488.56
2023-05-19T04:38:23.742Z,102486.91
2023-05-19T04:41:10.600Z,102481.72
2023-05-19T04:43:57.546Z,102484.38
2023-05-19T04:46:48.422Z,102485.56
2023-05-19T04:49:40.078Z,102483.94
2023-05-19T04:52:28.953Z,102488.28
2023-05-19T04:55:14.476Z,102490.97
2023-05-19T04:58:00.963Z,102482.31
2023-05-19T05:00:46.958Z,102486.75
2023-05-19T05:03:34.552Z,102478.84
2023-05-19T05:06:23.452Z,102479.69
2023-05-19T05:09:11.556Z,102485.00
2023-05-19T05:11:57.500Z,102479.72
2023-05-19T05:14:43.806Z,102472.66
2023-05-19T05:17:30.330Z,102481.34
2023-05-19T05:20:18.887Z,102479.47
2023-05-19T05:23:05.304Z,102482.19
2023-05-19T05:25:53.009Z,102468.91
2023-05-19T05:28:38.674Z,102459.31
2023-05-19T05:31:24.731Z,102461.00
2023-05-19T05:34:10.421Z,102463.06
2023-05-19T05:36:58.503Z,102458.78
2023-05-19T05:39:44.135Z,102458.81
2023-05-19T05:42:29.772Z,102461.78
2023-05-19T05:45:15.921Z,102463.72
2023-05-19T05:48:02.378Z,102463.13
2023-05-19T05:50:50.875Z,102474.13
2023-05-19T05:53:49.627Z,102465.03
2023-05-19T05:56:37.142Z,102469.16
2023-05-19T05:59:24.679Z,102472.63
2023-05-19T06:02:10.289Z,102460.25
2023-05-19T06:04:55.958Z,102464.78
2023-05-19T06:07:44.177Z,102470.44
2023-05-19T06:10:32.751Z,102472.06
2023-05-19T06:13:24.162Z,102477.19
2023-05-19T06:16:09.936Z,102479.72
2023-05-19T06:18:59.721Z,102478.41
2023-05-19T06:21:44.934Z,102476.00
2023-05-19T06:24:30.977Z,102472.53
2023-05-19T06:27:16.338Z,102471.75
2023-05-19T06:30:02.833Z,102471.69
2023-05-19T06:32:52.770Z,102473.47
2023-05-19T06:35:39.090Z,102477.84
2023-05-19T06:38:24.842Z,102476.84
2023-05-19T06:41:10.124Z,102485.50
2023-05-19T06:43:56.525Z,102485.28
2023-05-19T06:46:41.915Z,102473.59
2023-05-19T06:49:29.394Z,102476.81
2023-05-19T06:52:14.736Z,102479.03
2023-05-19T06:55:00.154Z,102481.31
2023-05-19T06:57:45.551Z,102474.22
2023-05-19T07:00:32.543Z,102481.25
2023-05-19T07:03:22.454Z,102483.97
2023-05-19T07:06:10.871Z,102477.72
2023-05-19T07:08:56.690Z,102475.16
2023-05-19T07:11:42.968Z,102474.00
2023-05-19T07:14:29.594Z,102470.38
2023-05-19T07:17:15.713Z,102475.47
2023-05-19T07:20:06.773Z,102468.41
2023-05-19T07:22:52.300Z,102471.94
2023-05-19T07:25:37.750Z,102472.66
2023-05-19T07:28:23.088Z,102473.97
2023-05-19T07:31:08.473Z,102471.69
2023-05-19T07:33:54.777Z,102478.66
2023-05-19T07:36:41.482Z,102475.09
2023-05-19T07:39:29.643Z,102471.59
2023-05-19T07:42:15.365Z,102481.06
2023-05-19T07:45:01.289Z,102468.56
2023-05-19T07:47:46.885Z,102470.91
2023-05-19T07:50:32.252Z,102468.66
2023-05-19T07:53:19.628Z,102469.31
2023-05-19T07:56:05.411Z,102475.03
2023-05-19T07:58:51.768Z,102465.41
2023-05-19T08:01:37.421Z,102461.63
2023-05-19T08:04:22.867Z,102462.94
2023-05-19T08:07:08.180Z,102456.47
2023-05-19T08:09:53.654Z,102464.06
2023-05-19T08:12:39.031Z,102463.88
2023-05-19T08:15:25.324Z,102452.13
2023-05-19T08:18:10.597Z,102455.41
2023-05-19T08:20:56.115Z,102449.91
2023-05-19T08:23:41.820Z,102438.22
2023-05-19T08:26:27.903Z,102443.94
2023-05-19T08:29:13.517Z,102443.59
2023-05-19T08:31:58.672Z,102442.19
2023-05-19T08:34:43.948Z,102428.59
2023-05-19T08:37:29.333Z,102428.28
2023-05-19T08:40:18.342Z,102428.13
2023-05-19T08:43:03.836Z,102415.16
2023-05-19T08:45:49.306Z,102414.59
2023-05-19T08:48:37.340Z,102409.53
2023-05-19T08:51:42.856Z,102404.53
2023-05-19T08:54:45.873Z,102409.31
2023-05-19T08:57:32.974Z,102399.28
2023-05-19T09:00:20.721Z,102401.28
2023-05-19T09:03:18.240Z,102397.97
2023-05-19T09:06:08.912Z,102390.94
2023-05-19T09:08:54.322Z,102394.44
2023-05-19T09:11:39.593Z,102397.94
2023-05-19T09:14:25.013Z,102389.66
2023-05-19T09:17:10.537Z,102396.22
2023-05-19T09:19:56.176Z,102399.59
2023-05-19T09:22:47.496Z,102392.84
2023-05-19T09:25:32.999Z,102388.66
2023-05-19T09:28:30.437Z,102396.94
2023-05-19T09:31:15.727Z,102385.66
2023-05-19T09:34:01.559Z,102379.44
2023-05-19T09:36:53.136Z,102376.50
2023-05-19T09:39:38.850Z,102380.00
2023-05-19T09:42:30.093Z,102371.06
2023-05-19T09:45:16.466Z,102375.53
2023-05-19T09:48:05.799Z,102370.50
2023-05-19T09:50:54.320Z,102378.31
2023-05-19T09:53:39.890Z,102370.00
2023-05-19T09:56:34.555Z,102363.34
2023-05-19T09:59:24.113Z,102354.59
2023-05-19T10:02:20.738Z,102350.44
2023-05-19T10:05:10.332Z,102360.03
2023-05-19T10:07:55.968Z,102362.59
2023-05-19T10:10:48.353Z,102364.47
2023-05-19T10:13:39.995Z,102369.16
2023-05-19T10:16:27.870Z,102364.56
2023-05-19T10:19:17.220Z,102369.78
2023-05-19T10:22:04.280Z,102370.63
2023-05-19T10:24:52.210Z,102363.03
2023-05-19T10:27:44.813Z,102360.81
2023-05-19T10:30:35.845Z,102362.78
2023-05-19T10:33:42.234Z,102344.19
2023-05-19T10:36:47.641Z,102355.50
2023-05-19T10:39:36.122Z,102342.16
2023-05-19T10:42:44.894Z,102334.38
2023-05-19T10:45:36.501Z,102325.81
2023-05-19T10:48:23.008Z,102328.75
2023-05-19T10:51:12.206Z,102327.16
2023-05-19T10:54:12.259Z,102327.63
2023-05-19T10:57:03.470Z,102330.09
2023-05-19T10:59:52.365Z,102327.50
2023-05-19T11:02:42.352Z,102322.75
2023-05-19T11:05:30.009Z,102327.81
2023-05-19T11:08:35.349Z,102327.06
2023-05-19T11:11:23.329Z,102322.88
2023-05-19T11:14:14.992Z,102323.75
2023-05-19T11:17:00.968Z,102322.50
2023-05-19T11:19:59.269Z,102324.00
2023-05-19T11:23:04.558Z,102328.78
2023-05-19T11:25:53.874Z,102334.19
2023-05-19T11:28:40.781Z,102333.25
2023-05-19T11:31:28.199Z,102327.66
2023-05-19T11:34:18.008Z,102324.81
2023-05-19T11:37:06.197Z,102312.72
2023-05-19T11:39:53.117Z,102316.88
2023-05-19T11:42:38.603Z,102315.97
2023-05-19T11:45:29.405Z,102306.00
2023-05-19T11:48:18.388Z,102312.94
2023-05-19T11:51:07.332Z,102302.75
2023-05-19T11:53:54.722Z,102308.72
2023-05-19T11:56:41.687Z,102302.88
2023-05-19T11:59:36.392Z,102301.97
2023-05-19T12:02:26.098Z,102289.94
2023-05-19T12:05:20.254Z,102300.66
2023-05-19T12:08:06.293Z,102298.25
2023-05-19T12:10:52.526Z,102295.59
2023-05-19T12:13:38.624Z,102297.84
2023-05-19T12:16:33.351Z,102286.13
2023-05-19T12:19:19.120Z,102291.69
2023-05-19T12:22:07.564Z,102289.06
2023-05-19T12:24:53.506Z,102281.34
2023-05-19T12:27:39.348Z,102288.84
2023-05-19T12:30:33.186Z,102280.31
2023-05-19T12:33:19.826Z,102279.31
2023-05-19T12:36:06.318Z,102277.06
2023-05-19T12:38:55.556Z,102271.94
2023-05-19T12:41:40.756Z,102283.31
2023-05-19T12:44:27.829Z,102286.47
2023-05-19T12:47:20.242Z,102275.38
2023-05-19T12:50:09.266Z,102275.13
2023-05-19T12:52:54.604Z,102274.69
2023-05-19T12:55:45.252Z,102272.28
2023-05-19T12:58:34.208Z,102274.16
2023-05-19T13:01:20.081Z,102264.44
2023-05-19T13:04:06.866Z,102259.84
2023-05-19T13:06:55.739Z,102254.19
2023-05-19T13:09:41.291Z,102240.25
2023-05-19T13:12:27.122Z,102253.06
2023-05-19T13:15:12.413Z,102243.09
2023-05-19T13:17:58.343Z,102240.78
2023-05-19T13:20:46.441Z,102236.09
2023-05-19T13:23:31.964Z,102236.47
2023-05-19T13:26:17.559Z,102239.06
2023-05-19T13:29:03.162Z,102236.28
2023-05-19T13:31:48.562Z,102225.66
2023-05-19T13:34:33.745Z,102227.03
2023-05-19T13:37:19.066Z,102221.75
2023-05-19T13:40:05.193Z,102228.31
2023-05-19T13:42:50.695Z,102222.59
2023-05-19T13:45:35.934Z,102221.78
2023-05-19T13:48:21.386Z,102220.50
2023-05-19T13:51:06.765Z,102212.72
2023-05-19T13:53:51.966Z,102211.09
2023-05-19T13:56:37.353Z,102215.94
2023-05-19T13:59:23.110Z,102215.72
2023-05-19T14:02:11.451Z,102205.13
2023-05-19T14:05:02.641Z,102209.88
2023-05-19T14:07:48.378Z,102219.19
2023-05-19T14:10:34.109Z,102218.63
2023-05-19T14:13:32.584Z,102206.44
2023-05-19T14:16:21.977Z,102206.22
2023-05-19T14:19:08.572Z,102206.75
2023-05-19T14:21:54.057Z,102203.34
2023-05-19T14:24:40.629Z,102200.25
2023-05-19T14:27:28.524Z,102199.97
2023-05-19T14:30:14.126Z,102198.72
2023-05-19T14:32:59.562Z,102203.06
2023-05-19T14:35:47.374Z,102202.41
2023-05-19T14:38:32.845Z,102196.88
2023-05-19T14:41:18.148Z,102197.47
2023-05-19T14:44:05.984Z,102197.47
2023-05-19T14:46:51.235Z,102202.41
2023-05-19T14:49:36.605Z,102190.47
2023-05-19T14:52:22.625Z,102190.19
2023-05-19T14:55:11.066Z,102183.63
2023-05-19T14:57:59.435Z,102192.34
2023-05-19T15:00:44.590Z,102203.88
2023-05-19T15:03:29.952Z,102192.53
2023-05-19T15:06:15.171Z,102183.91
2023-05-19T15:09:01.487Z,102175.72
2023-05-19T15:11:47.052Z,102174.34
2023-05-19T15:14:32.183Z,102168.84
2023-05-19T15:17:19.720Z,102172.09
2023-05-19T15:20:06.648Z,102169.72
2023-05-19T15:22:52.041Z,102169.75
2023-05-19T15:25:37.561Z,102175.28
2023-05-19T15:28:23.055Z,102163.16
2023-05-19T15:31:08.426Z,102165.59
2023-05-19T15:33:53.761Z,102169.63
2023-05-19T15:36:39.043Z,102172.50
2023-05-19T15:39:24.450Z,102169.38
2023-05-19T15:42:09.835Z,102158.78
2023-05-19T15:44:55.004Z,102167.16
2023-05-19T15:47:40.220Z,102165.06
2023-05-19T15:50:26.742Z,102166.44
2023-05-19T15:53:12.182Z,102160.31
2023-05-19T15:55:57.519Z,102151.34
2023-05-19T15:58:43.495Z,102160.59
2023-05-19T16:01:29.376Z,102156.28
2023-05-19T16:04:14.665Z,102153.47
2023-05-19T16:07:00.305Z,102149.88
2023-05-19T16:09:45.666Z,102152.13
2023-05-19T16:12:31.529Z,102141.47
2023-05-19T16:15:17.001Z,102126.19
2023-05-19T16:18:02.089Z,102134.06
2023-05-19T16:20:47.716Z,102130.81
2023-05-19T16:23:33.081Z,102130.88
2023-05-19T16:26:18.690Z,102134.97
2023-05-19T16:29:04.422Z,102133.66
2023-05-19T16:31:49.956Z,102144.63
2023-05-19T16:34:35.713Z,102138.09
2023-05-19T16:37:21.276Z,102132.28
2023-05-19T16:40:07.496Z,102127.22
2023-05-19T16:42:53.581Z,102132.53
2023-05-19T16:45:38.749Z,102126.22
2023-05-19T16:48:24.304Z,102126.31
2023-05-19T16:51:09.463Z,102127.38
2023-05-19T16:53:54.828Z,102115.97
2023-05-19T16:56:40.147Z,102123.16
2023-05-19T16:59:25.373Z,102119.66
2023-05-19T17:02:10.782Z,102119.66
2023-05-19T17:04:56.145Z,102128.25
2023-05-19T17:07:41.398Z,102120.47
2023-05-19T17:10:26.681Z,102130.44
2023-05-19T17:13:11.974Z,102131.31
2023-05-19T17:15:57.340Z,102133.72
2023-05-19T17:18:43.780Z,102132.53
2023-05-19T17:21:30.175Z,102127.88
2023-05-19T17:24:16.357Z,102136.38
2023-05-19T17:27:01.942Z,102136.84
2023-05-19T17:29:47.510Z,102139.91
2023-05-19T17:32:35.923Z,102132.00
2023-05-19T17:35:21.468Z,102134.66
2023-05-19T17:38:07.206Z,102140.13
2023-05-19T17:40:53.517Z,102130.63
2023-05-19T17:43:41.322Z,102133.41
2023-05-19T17:46:26.923Z,102132.16
2023-05-19T17:49:13.133Z,102129.56
2023-05-19T17:51:58.795Z,102128.69
2023-05-19T17:54:44.765Z,102129.47
2023-05-19T17:57:33.114Z,102130.41
2023-05-19T18:00:19.477Z,102133.50
2023-05-19T18:03:06.210Z,102130.81
2023-05-19T18:05:52.123Z,102130.78
2023-05-19T18:08:38.546Z,102123.03
2023-05-19T18:11:24.295Z,102126.38
2023-05-19T18:14:10.174Z,102121.16
2023-05-19T18:16:55.626Z,102129.56
2023-05-19T18:19:41.087Z,102134.75
2023-05-19T18:22:26.675Z,102136.16
2023-05-19T18:25:12.019Z,102131.06
2023-05-19T18:27:57.394Z,102139.34
2023-05-19T18:30:43.738Z,102134.78
2023-05-19T18:33:31.044Z,102136.59
2023-05-19T18:36:16.629Z,102143.56
2023-05-19T18:39:02.143Z,102147.09
2023-05-19T18:41:47.835Z,102149.31
2023-05-19T18:44:33.899Z,102144.63
2023-05-19T18:47:19.766Z,102152.41
2023-05-19T18:50:09.307Z,102153.31
2023-05-19T18:52:54.816Z,102155.22
2023-05-19T18:55:40.258Z,102156.06
2023-05-19T18:58:25.454Z,102166.25
2023-05-19T19:01:10.938Z,102167.41
2023-05-19T19:03:55.962Z,102167.59
2023-05-19T19:06:42.050Z,102162.41
2023-05-19T19:09:28.341Z,102168.56
2023-05-19T19:12:13.572Z,102174.72
2023-05-19T19:14:58.836Z,102168.19
2023-05-19T19:17:45.267Z,102172.22
2023-05-19T19:20:30.692Z,102177.22
2023-05-19T19:23:16.181Z,102179.63
2023-05-19T19:26:01.872Z,102188.03
2023-05-19T19:28:47.357Z,102195.56
2023-05-19T19:31:33.428Z,102193.31
2023-05-19T19:34:19.896Z,102202.53
2023-05-19T19:37:11.125Z,102200.25
2023-05-19T19:39:59.555Z,102203.16
2023-05-19T19:42:47.835Z,102201.66
2023-05-19T19:45:39.022Z,102202.69
2023-05-19T19:48:31.266Z,102205.63
2023-05-19T19:51:25.138Z,102206.81
2023-05-19T19:54:24.882Z,102218.59
2023-05-19T19:57:12.797Z,102222.44
2023-05-19T20:00:04.294Z,102216.41
2023-05-19T20:03:02.990Z,102213.97
2023-05-19T20:05:50.037Z,102217.72
2023-05-19T20:08:35.927Z,102219.66
2023-05-19T20:11:23.119Z,102225.03
2023-05-19T20:14:08.747Z,102219.09
2023-05-19T20:16:53.829Z,102223.69
2023-05-19T20:19:39.102Z,102219.41
2023-05-19T20:22:24.474Z,102226.56
2023-05-19T20:25:09.914Z,102229.34
2023-05-19T20:27:55.188Z,102229.47
2023-05-19T20:30:41.067Z,102227.72
2023-05-19T20:33:26.289Z,102232.25
2023-05-19T20:36:11.678Z,102236.78
2023-05-19T20:38:56.799Z,102224.53
2023-05-19T20:41:42.138Z,102230.00
2023-05-19T20:44:27.287Z,102230.13
2023-05-19T20:47:12.642Z,102224.16
2023-05-19T20:49:58.821Z,102227.84
2023-05-19T20:52:44.385Z,102226.22
2023-05-19T20:55:29.667Z,102225.53
2023-05-19T20:58:14.980Z,102231.03
2023-05-19T21:01:00.536Z,102233.84
2023-05-19T21:03:45.870Z,102232.28
2023-05-19T21:06:31.782Z,102232.47
2023-05-19T21:09:17.148Z,102235.28
2023-05-19T21:12:02.871Z,102230.09
2023-05-19T21:14:48.260Z,102232.84
2023-05-19T21:17:33.407Z,102239.19
2023-05-19T21:20:18.830Z,102238.44
2023-05-19T21:23:04.637Z,102240.31
2023-05-19T21:25:50.682Z,102242.22
2023-05-19T21:28:36.365Z,102245.03
2023-05-19T21:31:21.709Z,102245.13
2023-05-19T21:34:09.841Z,102243.38
2023-05-19T21:36:55.331Z,102239.03
2023-05-19T21:39:40.526Z,102240.81
2023-05-19T21:42:26.070Z,102242.63
2023-05-19T21:45:11.665Z,102246.22
2023-05-19T21:47:57.131Z,102242.72
2023-05-19T21:50:42.301Z,102242.75
2023-05-19T21:53:27.668Z,102241.88
2023-05-19T21:56:12.863Z,102240.19
2023-05-19T21:58:58.118Z,102237.53
2023-05-19T22:01:43.391Z,102238.31
2023-05-19T22:04:31.524Z,102240.88
2023-05-19T22:07:16.775Z,102247.88
2023-05-19T22:10:02.722Z,102246.94
2023-05-19T22:12:47.959Z,102248.69
2023-05-19T22:15:33.197Z,102243.44
2023-05-19T22:18:18.447Z,102247.09
2023-05-19T22:21:03.862Z,102246.28
2023-05-19T22:23:49.235Z,102242.84
2023-05-19T22:26:35.785Z,102247.28
2023-05-19T22:29:21.167Z,102244.63
2023-05-19T22:32:11.769Z,102246.50
2023-05-19T22:34:57.188Z,102238.63
2023-05-19T22:37:42.485Z,102244.78
2023-05-19T22:40:28.115Z,102251.88
2023-05-19T22:43:13.228Z,102247.44
2023-05-19T22:45:58.650Z,102254.50
2023-05-19T22:48:43.854Z,102242.91
2023-05-19T22:51:29.056Z,102240.22
2023-05-19T22:54:14.524Z,102248.19
2023-05-19T22:56:59.764Z,102246.41
2023-05-19T22:59:45.395Z,102243.75
2023-05-19T23:02:30.837Z,102243.84
2023-05-19T23:05:16.320Z,102241.34
2023-05-19T23:08:01.946Z,102247.53
2023-05-19T23:10:47.128Z,102249.41
2023-05-19T23:13:32.445Z,102249.53
2023-05-19T23:16:17.747Z,102248.81
2023-05-19T23:19:03.171Z,102244.56
2023-05-19T23:21:49.204Z,102238.41
2023-05-19T23:24:34.650Z,102238.41
2023-05-19T23:27:19.996Z,102230.53
2023-05-19T23:30:06.175Z,102239.47
2023-05-19T23:32:52.975Z,102236.81
2023-05-19T23:35:39.557Z,102235.13
2023-05-19T23:38:25.633Z,102237.94
2023-05-19T23:41:11.108Z,102239.88
2023-05-19T23:43:56.566Z,102242.63
2023-05-19T23:46:41.958Z,102238.28
2023-05-19T23:49:27.289Z,102240.13
2023-05-19T23:52:14.082Z,102247.34
2023-05-19T23:54:59.385Z,102237.72
2023-05-19T23:57:44.702Z,102242.19
